sensor_id;sensor_type;location;lat;lon;timestamp;P1;durP1;ratioP1;P2;durP2;ratioP2
26536;SDS011;14204;51.262;5.488;2023-07-20T00:01:03;6.28;;;4.78;;
26536;SDS011;14204;51.262;5.488;2023-07-20T00:03:29;7.57;;;4.90;;
26536;SDS011;14204;51.262;5.488;2023-07-20T00:05:55;8.90;;;4.50;;
26536;SDS011;14204;51.262;5.488;2023-07-20T00:08:20;7.00;;;4.90;;
26536;SDS011;14204;51.262;5.488;2023-07-20T00:10:46;11.52;;;5.13;;
26536;SDS011;14204;51.262;5.488;2023-07-20T00:13:12;5.38;;;4.80;;
26536;SDS011;14204;51.262;5.488;2023-07-20T00:15:37;7.15;;;4.97;;
26536;SDS011;14204;51.262;5.488;2023-07-20T00:18:03;6.07;;;5.35;;
26536;SDS011;14204;51.262;5.488;2023-07-20T00:20:30;11.70;;;5.63;;
26536;SDS011;14204;51.262;5.488;2023-07-20T00:22:56;10.38;;;4.47;;
26536;SDS011;14204;51.262;5.488;2023-07-20T00:25:26;11.35;;;5.35;;
26536;SDS011;14204;51.262;5.488;2023-07-20T00:27:51;10.20;;;5.45;;
26536;SDS011;14204;51.262;5.488;2023-07-20T00:30:18;5.80;;;4.32;;
26536;SDS011;14204;51.262;5.488;2023-07-20T00:32:44;13.57;;;5.10;;
26536;SDS011;14204;51.262;5.488;2023-07-20T00:35:10;12.95;;;6.05;;
26536;SDS011;14204;51.262;5.488;2023-07-20T00:37:36;8.35;;;5.07;;
26536;SDS011;14204;51.262;5.488;2023-07-20T00:40:03;10.52;;;5.43;;
26536;SDS011;14204;51.262;5.488;2023-07-20T00:42:33;8.73;;;4.63;;
26536;SDS011;14204;51.262;5.488;2023-07-20T00:44:59;9.98;;;5.07;;
26536;SDS011;14204;51.262;5.488;2023-07-20T00:47:25;9.25;;;4.82;;
26536;SDS011;14204;51.262;5.488;2023-07-20T00:49:51;9.05;;;4.82;;
26536;SDS011;14204;51.262;5.488;2023-07-20T00:52:17;7.85;;;4.57;;
26536;SDS011;14204;51.262;5.488;2023-07-20T00:54:45;9.32;;;4.82;;
26536;SDS011;14204;51.262;5.488;2023-07-20T00:57:13;7.93;;;5.20;;
26536;SDS011;14204;51.262;5.488;2023-07-20T00:59:40;10.70;;;5.30;;
26536;SDS011;14204;51.262;5.488;2023-07-20T01:02:05;10.07;;;5.57;;
26536;SDS011;14204;51.262;5.488;2023-07-20T01:04:31;6.45;;;5.13;;
26536;SDS011;14204;51.262;5.488;2023-07-20T01:07:22;8.75;;;4.93;;
26536;SDS011;14204;51.262;5.488;2023-07-20T01:10:00;8.10;;;4.72;;
26536;SDS011;14204;51.262;5.488;2023-07-20T01:12:46;6.47;;;4.90;;
26536;SDS011;14204;51.262;5.488;2023-07-20T01:15:16;11.23;;;5.05;;
26536;SDS011;14204;51.262;5.488;2023-07-20T01:17:42;8.35;;;5.30;;
26536;SDS011;14204;51.262;5.488;2023-07-20T01:20:09;7.75;;;4.55;;
26536;SDS011;14204;51.262;5.488;2023-07-20T01:22:57;6.93;;;4.82;;
26536;SDS011;14204;51.262;5.488;2023-07-20T01:31:25;10.18;;;5.00;;
26536;SDS011;14204;51.262;5.488;2023-07-20T01:33:57;9.88;;;4.88;;
26536;SDS011;14204;51.262;5.488;2023-07-20T01:36:26;6.88;;;5.15;;
26536;SDS011;14204;51.262;5.488;2023-07-20T01:38:53;7.53;;;5.22;;
26536;SDS011;14204;51.262;5.488;2023-07-20T01:41:21;10.93;;;5.70;;
26536;SDS011;14204;51.262;5.488;2023-07-20T01:43:47;8.70;;;5.20;;
26536;SDS011;14204;51.262;5.488;2023-07-20T01:46:12;9.45;;;5.28;;
26536;SDS011;14204;51.262;5.488;2023-07-20T01:48:38;10.80;;;6.43;;
26536;SDS011;14204;51.262;5.488;2023-07-20T01:51:04;11.20;;;5.60;;
26536;SDS011;14204;51.262;5.488;2023-07-20T01:53:29;9.20;;;5.70;;
26536;SDS011;14204;51.262;5.488;2023-07-20T01:55:56;6.82;;;5.57;;
26536;SDS011;14204;51.262;5.488;2023-07-20T01:58:22;9.50;;;6.82;;
26536;SDS011;14204;51.262;5.488;2023-07-20T02:00:47;12.57;;;5.88;;
26536;SDS011;14204;51.262;5.488;2023-07-20T02:03:13;11.50;;;6.43;;
26536;SDS011;14204;51.262;5.488;2023-07-20T02:05:39;12.27;;;5.70;;
26536;SDS011;14204;51.262;5.488;2023-07-20T02:08:07;11.95;;;6.13;;
26536;SDS011;14204;51.262;5.488;2023-07-20T02:10:32;8.25;;;6.03;;
26536;SDS011;14204;51.262;5.488;2023-07-20T02:12:58;9.10;;;5.15;;
26536;SDS011;14204;51.262;5.488;2023-07-20T02:15:24;9.07;;;6.10;;
26536;SDS011;14204;51.262;5.488;2023-07-20T02:17:49;14.00;;;6.85;;
26536;SDS011;14204;51.262;5.488;2023-07-20T02:20:15;9.70;;;6.25;;
26536;SDS011;14204;51.262;5.488;2023-07-20T02:22:41;10.90;;;6.13;;
26536;SDS011;14204;51.262;5.488;2023-07-20T02:25:07;11.35;;;6.40;;
26536;SDS011;14204;51.262;5.488;2023-07-20T02:27:36;14.40;;;6.38;;
26536;SDS011;14204;51.262;5.488;2023-07-20T02:30:02;13.63;;;7.03;;
26536;SDS011;14204;51.262;5.488;2023-07-20T02:32:29;10.40;;;6.50;;
26536;SDS011;14204;51.262;5.488;2023-07-20T02:34:55;11.07;;;6.28;;
26536;SDS011;14204;51.262;5.488;2023-07-20T02:37:21;13.05;;;6.40;;
26536;SDS011;14204;51.262;5.488;2023-07-20T02:39:46;13.77;;;6.93;;
26536;SDS011;14204;51.262;5.488;2023-07-20T02:42:12;9.85;;;5.90;;
26536;SDS011;14204;51.262;5.488;2023-07-20T02:44:38;15.00;;;7.25;;
26536;SDS011;14204;51.262;5.488;2023-07-20T02:47:04;12.73;;;6.35;;
26536;SDS011;14204;51.262;5.488;2023-07-20T02:49:30;11.48;;;6.22;;
26536;SDS011;14204;51.262;5.488;2023-07-20T02:51:55;11.60;;;5.90;;
26536;SDS011;14204;51.262;5.488;2023-07-20T02:54:21;12.60;;;7.13;;
26536;SDS011;14204;51.262;5.488;2023-07-20T02:56:47;14.32;;;6.38;;
26536;SDS011;14204;51.262;5.488;2023-07-20T02:59:12;12.02;;;5.75;;
26536;SDS011;14204;51.262;5.488;2023-07-20T03:01:38;12.25;;;5.45;;
26536;SDS011;14204;51.262;5.488;2023-07-20T03:04:04;12.93;;;6.85;;
26536;SDS011;14204;51.262;5.488;2023-07-20T03:06:29;12.98;;;7.30;;
26536;SDS011;14204;51.262;5.488;2023-07-20T03:08:55;16.23;;;7.43;;
26536;SDS011;14204;51.262;5.488;2023-07-20T03:11:21;14.98;;;8.90;;
26536;SDS011;14204;51.262;5.488;2023-07-20T03:13:47;16.30;;;7.65;;
26536;SDS011;14204;51.262;5.488;2023-07-20T03:16:13;15.95;;;8.13;;
26536;SDS011;14204;51.262;5.488;2023-07-20T03:18:42;11.85;;;7.50;;
26536;SDS011;14204;51.262;5.488;2023-07-20T03:21:08;14.18;;;8.00;;
26536;SDS011;14204;51.262;5.488;2023-07-20T03:23:38;14.90;;;10.00;;
26536;SDS011;14204;51.262;5.488;2023-07-20T03:26:05;15.85;;;10.32;;
26536;SDS011;14204;51.262;5.488;2023-07-20T03:28:33;15.60;;;10.23;;
26536;SDS011;14204;51.262;5.488;2023-07-20T03:30:59;15.00;;;9.85;;
26536;SDS011;14204;51.262;5.488;2023-07-20T03:33:25;14.73;;;9.85;;
26536;SDS011;14204;51.262;5.488;2023-07-20T03:35:54;16.95;;;10.77;;
26536;SDS011;14204;51.262;5.488;2023-07-20T03:38:20;16.48;;;9.73;;
26536;SDS011;14204;51.262;5.488;2023-07-20T03:40:50;18.60;;;11.25;;
26536;SDS011;14204;51.262;5.488;2023-07-20T03:43:16;21.30;;;12.38;;
26536;SDS011;14204;51.262;5.488;2023-07-20T03:45:42;17.42;;;11.27;;
26536;SDS011;14204;51.262;5.488;2023-07-20T03:48:08;19.55;;;12.00;;
26536;SDS011;14204;51.262;5.488;2023-07-20T03:50:34;19.13;;;11.60;;
26536;SDS011;14204;51.262;5.488;2023-07-20T03:53:00;20.63;;;11.93;;
26536;SDS011;14204;51.262;5.488;2023-07-20T03:55:25;24.55;;;12.90;;
26536;SDS011;14204;51.262;5.488;2023-07-20T03:57:51;20.00;;;12.27;;
26536;SDS011;14204;51.262;5.488;2023-07-20T04:00:17;20.23;;;12.52;;
26536;SDS011;14204;51.262;5.488;2023-07-20T04:02:43;18.30;;;12.10;;
26536;SDS011;14204;51.262;5.488;2023-07-20T04:05:09;19.65;;;12.88;;
26536;SDS011;14204;51.262;5.488;2023-07-20T04:07:34;17.35;;;12.93;;
26536;SDS011;14204;51.262;5.488;2023-07-20T04:10:00;20.25;;;12.38;;
26536;SDS011;14204;51.262;5.488;2023-07-20T04:12:26;24.30;;;13.95;;
26536;SDS011;14204;51.262;5.488;2023-07-20T04:14:51;20.67;;;13.95;;
26536;SDS011;14204;51.262;5.488;2023-07-20T04:17:17;19.13;;;14.40;;
26536;SDS011;14204;51.262;5.488;2023-07-20T04:19:43;20.92;;;13.93;;
26536;SDS011;14204;51.262;5.488;2023-07-20T04:22:09;23.77;;;14.70;;
26536;SDS011;14204;51.262;5.488;2023-07-20T04:24:35;19.85;;;13.75;;
26536;SDS011;14204;51.262;5.488;2023-07-20T04:27:00;21.90;;;14.38;;
26536;SDS011;14204;51.262;5.488;2023-07-20T04:29:26;17.08;;;12.95;;
26536;SDS011;14204;51.262;5.488;2023-07-20T04:31:52;17.67;;;13.25;;
26536;SDS011;14204;51.262;5.488;2023-07-20T04:34:17;21.88;;;13.35;;
26536;SDS011;14204;51.262;5.488;2023-07-20T04:36:43;22.00;;;14.93;;
26536;SDS011;14204;51.262;5.488;2023-07-20T04:39:09;21.50;;;14.48;;
26536;SDS011;14204;51.262;5.488;2023-07-20T04:41:35;23.95;;;14.23;;
26536;SDS011;14204;51.262;5.488;2023-07-20T04:44:01;24.25;;;15.27;;
26536;SDS011;14204;51.262;5.488;2023-07-20T04:46:26;21.17;;;16.10;;
26536;SDS011;14204;51.262;5.488;2023-07-20T04:48:52;19.45;;;13.68;;
26536;SDS011;14204;51.262;5.488;2023-07-20T04:51:18;19.73;;;14.02;;
26536;SDS011;14204;51.262;5.488;2023-07-20T04:53:46;18.55;;;13.75;;
26536;SDS011;14204;51.262;5.488;2023-07-20T04:56:12;20.15;;;14.15;;
26536;SDS011;14204;51.262;5.488;2023-07-20T04:58:38;20.83;;;15.05;;
26536;SDS011;14204;51.262;5.488;2023-07-20T05:01:03;22.50;;;16.02;;
26536;SDS011;14204;51.262;5.488;2023-07-20T05:03:29;24.17;;;16.58;;
26536;SDS011;14204;51.262;5.488;2023-07-20T05:05:55;20.85;;;14.20;;
26536;SDS011;14204;51.262;5.488;2023-07-20T05:08:20;23.00;;;15.02;;
26536;SDS011;14204;51.262;5.488;2023-07-20T05:10:49;21.63;;;15.55;;
26536;SDS011;14204;51.262;5.488;2023-07-20T05:13:15;19.63;;;16.48;;
26536;SDS011;14204;51.262;5.488;2023-07-20T05:15:40;23.90;;;16.17;;
26536;SDS011;14204;51.262;5.488;2023-07-20T05:18:06;20.77;;;15.80;;
26536;SDS011;14204;51.262;5.488;2023-07-20T05:20:32;21.65;;;16.70;;
26536;SDS011;14204;51.262;5.488;2023-07-20T05:22:59;22.48;;;17.75;;
26536;SDS011;14204;51.262;5.488;2023-07-20T05:25:25;25.38;;;17.17;;
26536;SDS011;14204;51.262;5.488;2023-07-20T05:27:51;22.58;;;18.60;;
26536;SDS011;14204;51.262;5.488;2023-07-20T05:30:17;24.75;;;17.42;;
26536;SDS011;14204;51.262;5.488;2023-07-20T05:32:44;22.80;;;17.98;;
26536;SDS011;14204;51.262;5.488;2023-07-20T05:35:12;23.55;;;17.42;;
26536;SDS011;14204;51.262;5.488;2023-07-20T05:37:39;21.08;;;16.10;;
26536;SDS011;14204;51.262;5.488;2023-07-20T05:40:05;20.33;;;16.52;;
26536;SDS011;14204;51.262;5.488;2023-07-20T05:42:33;18.13;;;15.77;;
26536;SDS011;14204;51.262;5.488;2023-07-20T05:44:58;22.38;;;15.85;;
26536;SDS011;14204;51.262;5.488;2023-07-20T05:47:24;22.42;;;16.92;;
26536;SDS011;14204;51.262;5.488;2023-07-20T05:49:50;22.48;;;16.58;;
26536;SDS011;14204;51.262;5.488;2023-07-20T05:52:15;18.50;;;15.40;;
26536;SDS011;14204;51.262;5.488;2023-07-20T05:54:41;23.50;;;17.08;;
26536;SDS011;14204;51.262;5.488;2023-07-20T05:57:07;19.67;;;15.25;;
26536;SDS011;14204;51.262;5.488;2023-07-20T05:59:33;20.88;;;16.60;;
26536;SDS011;14204;51.262;5.488;2023-07-20T06:01:59;19.88;;;16.05;;
26536;SDS011;14204;51.262;5.488;2023-07-20T06:04:24;19.90;;;15.50;;
26536;SDS011;14204;51.262;5.488;2023-07-20T06:06:50;19.70;;;15.68;;
26536;SDS011;14204;51.262;5.488;2023-07-20T06:09:16;21.15;;;15.48;;
26536;SDS011;14204;51.262;5.488;2023-07-20T06:11:41;16.38;;;14.10;;
26536;SDS011;14204;51.262;5.488;2023-07-20T06:14:07;18.73;;;13.55;;
26536;SDS011;14204;51.262;5.488;2023-07-20T06:16:32;16.67;;;12.90;;
26536;SDS011;14204;51.262;5.488;2023-07-20T06:18:59;14.10;;;11.40;;
26536;SDS011;14204;51.262;5.488;2023-07-20T06:21:25;13.82;;;12.07;;
26536;SDS011;14204;51.262;5.488;2023-07-20T06:23:51;17.20;;;13.10;;
26536;SDS011;14204;51.262;5.488;2023-07-20T06:26:17;13.32;;;11.93;;
26536;SDS011;14204;51.262;5.488;2023-07-20T06:28:42;16.30;;;13.80;;
26536;SDS011;14204;51.262;5.488;2023-07-20T06:31:08;13.98;;;11.93;;
26536;SDS011;14204;51.262;5.488;2023-07-20T06:33:34;18.50;;;12.43;;
26536;SDS011;14204;51.262;5.488;2023-07-20T06:35:59;13.00;;;11.57;;
26536;SDS011;14204;51.262;5.488;2023-07-20T06:38:25;15.50;;;11.32;;
26536;SDS011;14204;51.262;5.488;2023-07-20T06:40:51;13.38;;;10.30;;
26536;SDS011;14204;51.262;5.488;2023-07-20T06:43:17;12.02;;;9.95;;
26536;SDS011;14204;51.262;5.488;2023-07-20T06:45:51;12.43;;;11.00;;
26536;SDS011;14204;51.262;5.488;2023-07-20T06:48:20;12.43;;;10.20;;
26536;SDS011;14204;51.262;5.488;2023-07-20T06:50:46;12.10;;;9.88;;
26536;SDS011;14204;51.262;5.488;2023-07-20T06:53:12;11.60;;;10.38;;
26536;SDS011;14204;51.262;5.488;2023-07-20T06:55:38;11.30;;;9.38;;
26536;SDS011;14204;51.262;5.488;2023-07-20T06:58:04;8.73;;;7.90;;
26536;SDS011;14204;51.262;5.488;2023-07-20T07:00:30;8.77;;;7.97;;
26536;SDS011;14204;51.262;5.488;2023-07-20T07:02:55;8.13;;;6.70;;
26536;SDS011;14204;51.262;5.488;2023-07-20T07:05:21;6.60;;;5.88;;
26536;SDS011;14204;51.262;5.488;2023-07-20T07:07:47;7.22;;;6.25;;
26536;SDS011;14204;51.262;5.488;2023-07-20T07:10:13;7.65;;;6.93;;
26536;SDS011;14204;51.262;5.488;2023-07-20T07:12:39;7.65;;;6.43;;
26536;SDS011;14204;51.262;5.488;2023-07-20T07:15:06;7.25;;;6.55;;
26536;SDS011;14204;51.262;5.488;2023-07-20T07:17:32;7.10;;;5.13;;
26536;SDS011;14204;51.262;5.488;2023-07-20T07:19:58;5.25;;;4.50;;
26536;SDS011;14204;51.262;5.488;2023-07-20T07:22:23;4.22;;;3.83;;
26536;SDS011;14204;51.262;5.488;2023-07-20T07:24:50;3.97;;;3.28;;
26536;SDS011;14204;51.262;5.488;2023-07-20T07:27:15;4.85;;;3.72;;
26536;SDS011;14204;51.262;5.488;2023-07-20T07:29:41;3.70;;;2.80;;
26536;SDS011;14204;51.262;5.488;2023-07-20T07:32:09;2.47;;;2.28;;
26536;SDS011;14204;51.262;5.488;2023-07-20T07:34:36;4.13;;;2.00;;
26536;SDS011;14204;51.262;5.488;2023-07-20T07:37:02;2.50;;;2.30;;
26536;SDS011;14204;51.262;5.488;2023-07-20T07:39:29;2.22;;;2.00;;
26536;SDS011;14204;51.262;5.488;2023-07-20T07:41:55;3.97;;;2.53;;
26536;SDS011;14204;51.262;5.488;2023-07-20T07:44:21;3.92;;;2.95;;
26536;SDS011;14204;51.262;5.488;2023-07-20T07:46:47;3.35;;;2.67;;
26536;SDS011;14204;51.262;5.488;2023-07-20T07:49:13;2.55;;;2.00;;
26536;SDS011;14204;51.262;5.488;2023-07-20T07:51:39;3.30;;;2.08;;
26536;SDS011;14204;51.262;5.488;2023-07-20T07:54:05;3.22;;;1.85;;
26536;SDS011;14204;51.262;5.488;2023-07-20T07:56:31;1.73;;;1.63;;
26536;SDS011;14204;51.262;5.488;2023-07-20T07:58:56;1.50;;;1.40;;
26536;SDS011;14204;51.262;5.488;2023-07-20T08:01:22;2.42;;;1.63;;
26536;SDS011;14204;51.262;5.488;2023-07-20T08:03:48;2.83;;;1.45;;
26536;SDS011;14204;51.262;5.488;2023-07-20T08:06:14;0.88;;;0.88;;
26536;SDS011;14204;51.262;5.488;2023-07-20T08:08:39;0.90;;;0.80;;
26536;SDS011;14204;51.262;5.488;2023-07-20T08:11:05;1.23;;;0.85;;
26536;SDS011;14204;51.262;5.488;2023-07-20T08:13:31;1.05;;;0.75;;
26536;SDS011;14204;51.262;5.488;2023-07-20T08:15:57;0.85;;;0.40;;
26536;SDS011;14204;51.262;5.488;2023-07-20T08:18:23;0.40;;;0.40;;
26536;SDS011;14204;51.262;5.488;2023-07-20T08:20:49;0.47;;;0.40;;
26536;SDS011;14204;51.262;5.488;2023-07-20T08:23:15;1.42;;;0.85;;
26536;SDS011;14204;51.262;5.488;2023-07-20T08:25:41;1.95;;;1.85;;
26536;SDS011;14204;51.262;5.488;2023-07-20T08:28:10;3.58;;;2.72;;
26536;SDS011;14204;51.262;5.488;2023-07-20T08:30:47;2.80;;;2.60;;
26536;SDS011;14204;51.262;5.488;2023-07-20T08:33:14;3.65;;;2.65;;
26536;SDS011;14204;51.262;5.488;2023-07-20T08:35:45;1.77;;;1.63;;
26536;SDS011;14204;51.262;5.488;2023-07-20T08:38:11;4.82;;;1.67;;
26536;SDS011;14204;51.262;5.488;2023-07-20T08:40:41;5.13;;;1.77;;
26536;SDS011;14204;51.262;5.488;2023-07-20T08:43:08;3.40;;;1.25;;
26536;SDS011;14204;51.262;5.488;2023-07-20T08:45:36;1.15;;;0.90;;
26536;SDS011;14204;51.262;5.488;2023-07-20T08:48:05;1.52;;;1.35;;
26536;SDS011;14204;51.262;5.488;2023-07-20T08:50:32;0.90;;;0.90;;
26536;SDS011;14204;51.262;5.488;2023-07-20T08:52:58;1.13;;;0.70;;
26536;SDS011;14204;51.262;5.488;2023-07-20T08:55:25;0.88;;;0.80;;
26536;SDS011;14204;51.262;5.488;2023-07-20T08:57:55;1.35;;;1.00;;
26536;SDS011;14204;51.262;5.488;2023-07-20T09:00:22;1.20;;;0.85;;
26536;SDS011;14204;51.262;5.488;2023-07-20T09:02:50;0.80;;;0.80;;
26536;SDS011;14204;51.262;5.488;2023-07-20T09:05:17;1.38;;;1.27;;
26536;SDS011;14204;51.262;5.488;2023-07-20T09:07:47;2.65;;;1.63;;
26536;SDS011;14204;51.262;5.488;2023-07-20T09:10:13;2.22;;;1.20;;
26536;SDS011;14204;51.262;5.488;2023-07-20T09:12:39;1.02;;;0.90;;
26536;SDS011;14204;51.262;5.488;2023-07-20T09:15:07;0.70;;;0.70;;
26536;SDS011;14204;51.262;5.488;2023-07-20T09:17:34;0.82;;;0.70;;
26536;SDS011;14204;51.262;5.488;2023-07-20T09:20:03;0.73;;;0.32;;
26536;SDS011;14204;51.262;5.488;2023-07-20T09:22:35;2.05;;;0.77;;
26536;SDS011;14204;51.262;5.488;2023-07-20T09:25:18;2.47;;;0.88;;
26536;SDS011;14204;51.262;5.488;2023-07-20T09:27:47;1.40;;;1.30;;
26536;SDS011;14204;51.262;5.488;2023-07-20T09:30:15;1.40;;;0.70;;
26536;SDS011;14204;51.262;5.488;2023-07-20T09:32:45;1.85;;;0.80;;
26536;SDS011;14204;51.262;5.488;2023-07-20T09:35:15;0.90;;;0.80;;
26536;SDS011;14204;51.262;5.488;2023-07-20T09:37:46;3.72;;;0.75;;
26536;SDS011;14204;51.262;5.488;2023-07-20T09:40:27;2.75;;;1.10;;
26536;SDS011;14204;51.262;5.488;2023-07-20T09:42:54;0.95;;;0.80;;
26536;SDS011;14204;51.262;5.488;2023-07-20T09:45:33;0.50;;;0.50;;
26536;SDS011;14204;51.262;5.488;2023-07-20T09:48:05;0.90;;;0.90;;
26536;SDS011;14204;51.262;5.488;2023-07-20T09:50:39;1.75;;;0.85;;
26536;SDS011;14204;51.262;5.488;2023-07-20T09:53:11;0.73;;;0.60;;
26536;SDS011;14204;51.262;5.488;2023-07-20T09:55:39;0.88;;;0.65;;
26536;SDS011;14204;51.262;5.488;2023-07-20T09:58:05;3.30;;;0.93;;
26536;SDS011;14204;51.262;5.488;2023-07-20T10:00:34;1.85;;;0.63;;
26536;SDS011;14204;51.262;5.488;2023-07-20T10:03:03;2.83;;;0.77;;
26536;SDS011;14204;51.262;5.488;2023-07-20T10:05:33;2.15;;;0.70;;
26536;SDS011;14204;51.262;5.488;2023-07-20T10:08:02;3.37;;;0.87;;
26536;SDS011;14204;51.262;5.488;2023-07-20T10:10:31;0.70;;;0.70;;
26536;SDS011;14204;51.262;5.488;2023-07-20T10:12:58;0.98;;;0.80;;
26536;SDS011;14204;51.262;5.488;2023-07-20T10:15:40;1.15;;;0.70;;
26536;SDS011;14204;51.262;5.488;2023-07-20T10:20:43;1.90;;;0.63;;
26536;SDS011;14204;51.262;5.488;2023-07-20T10:23:11;1.55;;;0.70;;
26536;SDS011;14204;51.262;5.488;2023-07-20T10:25:37;1.33;;;0.60;;
26536;SDS011;14204;51.262;5.488;2023-07-20T10:28:06;1.58;;;0.60;;
26536;SDS011;14204;51.262;5.488;2023-07-20T10:30:35;0.90;;;0.60;;
26536;SDS011;14204;51.262;5.488;2023-07-20T10:33:05;1.02;;;0.93;;
26536;SDS011;14204;51.262;5.488;2023-07-20T10:35:51;1.35;;;1.00;;
26536;SDS011;14204;51.262;5.488;2023-07-20T10:41:20;0.85;;;0.85;;
26536;SDS011;14204;51.262;5.488;2023-07-20T10:43:45;0.93;;;0.75;;
26536;SDS011;14204;51.262;5.488;2023-07-20T10:46:12;1.42;;;0.60;;
26536;SDS011;14204;51.262;5.488;2023-07-20T10:56:41;2.90;;;0.95;;
26536;SDS011;14204;51.262;5.488;2023-07-20T11:01:49;1.45;;;0.80;;
26536;SDS011;14204;51.262;5.488;2023-07-20T11:04:15;1.27;;;0.70;;
26536;SDS011;14204;51.262;5.488;2023-07-20T11:06:45;0.60;;;0.60;;
26536;SDS011;14204;51.262;5.488;2023-07-20T11:09:12;2.97;;;0.70;;
26536;SDS011;14204;51.262;5.488;2023-07-20T11:11:42;0.52;;;0.52;;
26536;SDS011;14204;51.262;5.488;2023-07-20T11:14:31;0.75;;;0.75;;
26536;SDS011;14204;51.262;5.488;2023-07-20T11:16:59;0.77;;;0.77;;
26536;SDS011;14204;51.262;5.488;2023-07-20T11:19:37;0.55;;;0.50;;
26536;SDS011;14204;51.262;5.488;2023-07-20T11:22:05;0.90;;;0.60;;
26536;SDS011;14204;51.262;5.488;2023-07-20T11:24:36;0.45;;;0.45;;
26536;SDS011;14204;51.262;5.488;2023-07-20T11:27:04;1.30;;;0.57;;
26536;SDS011;14204;51.262;5.488;2023-07-20T11:29:30;0.73;;;0.73;;
26536;SDS011;14204;51.262;5.488;2023-07-20T11:31:56;0.88;;;0.60;;
26536;SDS011;14204;51.262;5.488;2023-07-20T11:34:24;1.73;;;0.82;;
26536;SDS011;14204;51.262;5.488;2023-07-20T11:36:50;1.58;;;0.70;;
26536;SDS011;14204;51.262;5.488;2023-07-20T11:39:17;1.88;;;0.73;;
26536;SDS011;14204;51.262;5.488;2023-07-20T11:41:46;0.47;;;0.47;;
26536;SDS011;14204;51.262;5.488;2023-07-20T11:44:17;1.70;;;0.70;;
26536;SDS011;14204;51.262;5.488;2023-07-20T11:46:59;0.77;;;0.77;;
26536;SDS011;14204;51.262;5.488;2023-07-20T11:49:26;2.15;;;0.70;;
26536;SDS011;14204;51.262;5.488;2023-07-20T11:51:52;0.80;;;0.73;;
26536;SDS011;14204;51.262;5.488;2023-07-20T11:54:18;2.00;;;0.80;;
26536;SDS011;14204;51.262;5.488;2023-07-20T11:56:44;0.80;;;0.80;;
26536;SDS011;14204;51.262;5.488;2023-07-20T11:59:09;0.60;;;0.50;;
26536;SDS011;14204;51.262;5.488;2023-07-20T12:01:35;0.93;;;0.60;;
26536;SDS011;14204;51.262;5.488;2023-07-20T12:04:02;2.08;;;1.00;;
26536;SDS011;14204;51.262;5.488;2023-07-20T12:06:29;2.28;;;0.90;;
26536;SDS011;14204;51.262;5.488;2023-07-20T12:08:55;0.65;;;0.63;;
26536;SDS011;14204;51.262;5.488;2023-07-20T12:14:01;0.88;;;0.82;;
26536;SDS011;14204;51.262;5.488;2023-07-20T12:16:28;1.38;;;0.90;;
26536;SDS011;14204;51.262;5.488;2023-07-20T12:21:34;1.08;;;0.80;;
26536;SDS011;14204;51.262;5.488;2023-07-20T12:24:04;2.03;;;1.02;;
26536;SDS011;14204;51.262;5.488;2023-07-20T12:26:31;1.08;;;0.98;;
26536;SDS011;14204;51.262;5.488;2023-07-20T12:28:57;0.65;;;0.65;;
26536;SDS011;14204;51.262;5.488;2023-07-20T12:31:24;0.68;;;0.68;;
26536;SDS011;14204;51.262;5.488;2023-07-20T12:33:51;0.73;;;0.73;;
26536;SDS011;14204;51.262;5.488;2023-07-20T12:36:17;0.77;;;0.60;;
26536;SDS011;14204;51.262;5.488;2023-07-20T12:38:43;0.82;;;0.82;;
26536;SDS011;14204;51.262;5.488;2023-07-20T12:41:10;1.17;;;0.90;;
26536;SDS011;14204;51.262;5.488;2023-07-20T12:43:43;1.52;;;0.70;;
26536;SDS011;14204;51.262;5.488;2023-07-20T12:46:09;0.60;;;0.60;;
26536;SDS011;14204;51.262;5.488;2023-07-20T12:48:37;1.10;;;1.00;;
26536;SDS011;14204;51.262;5.488;2023-07-20T12:51:05;2.25;;;0.95;;
26536;SDS011;14204;51.262;5.488;2023-07-20T12:53:31;3.58;;;0.82;;
26536;SDS011;14204;51.262;5.488;2023-07-20T12:55:57;2.90;;;0.80;;
26536;SDS011;14204;51.262;5.488;2023-07-20T12:58:23;0.80;;;0.80;;
26536;SDS011;14204;51.262;5.488;2023-07-20T13:00:49;1.00;;;0.90;;
26536;SDS011;14204;51.262;5.488;2023-07-20T13:03:15;2.00;;;1.00;;
26536;SDS011;14204;51.262;5.488;2023-07-20T13:05:43;0.80;;;0.80;;
26536;SDS011;14204;51.262;5.488;2023-07-20T13:08:09;1.08;;;0.90;;
26536;SDS011;14204;51.262;5.488;2023-07-20T13:10:35;1.98;;;0.75;;
26536;SDS011;14204;51.262;5.488;2023-07-20T13:13:01;1.10;;;1.00;;
26536;SDS011;14204;51.262;5.488;2023-07-20T13:15:31;1.58;;;0.95;;
26536;SDS011;14204;51.262;5.488;2023-07-20T13:17:58;2.80;;;1.00;;
26536;SDS011;14204;51.262;5.488;2023-07-20T13:20:24;1.45;;;0.70;;
26536;SDS011;14204;51.262;5.488;2023-07-20T13:22:50;2.67;;;0.70;;
26536;SDS011;14204;51.262;5.488;2023-07-20T13:25:16;0.70;;;0.60;;
26536;SDS011;14204;51.262;5.488;2023-07-20T13:27:42;1.08;;;0.70;;
26536;SDS011;14204;51.262;5.488;2023-07-20T13:30:08;0.68;;;0.65;;
26536;SDS011;14204;51.262;5.488;2023-07-20T13:32:38;0.80;;;0.80;;
26536;SDS011;14204;51.262;5.488;2023-07-20T13:35:04;2.92;;;0.70;;
26536;SDS011;14204;51.262;5.488;2023-07-20T13:37:30;1.73;;;0.73;;
26536;SDS011;14204;51.262;5.488;2023-07-20T13:39:56;0.93;;;0.70;;
26536;SDS011;14204;51.262;5.488;2023-07-20T13:42:21;0.68;;;0.63;;
26536;SDS011;14204;51.262;5.488;2023-07-20T13:44:48;1.02;;;0.80;;
26536;SDS011;14204;51.262;5.488;2023-07-20T13:47:14;1.55;;;0.60;;
26536;SDS011;14204;51.262;5.488;2023-07-20T13:49:39;1.83;;;0.80;;
26536;SDS011;14204;51.262;5.488;2023-07-20T13:52:05;0.60;;;0.60;;
26536;SDS011;14204;51.262;5.488;2023-07-20T13:54:31;1.88;;;0.93;;
26536;SDS011;14204;51.262;5.488;2023-07-20T13:56:57;3.00;;;0.93;;
26536;SDS011;14204;51.262;5.488;2023-07-20T13:59:22;2.42;;;1.00;;
26536;SDS011;14204;51.262;5.488;2023-07-20T14:01:48;0.80;;;0.70;;
26536;SDS011;14204;51.262;5.488;2023-07-20T14:04:14;1.58;;;1.00;;
26536;SDS011;14204;51.262;5.488;2023-07-20T14:06:40;0.80;;;0.80;;
26536;SDS011;14204;51.262;5.488;2023-07-20T14:09:06;1.60;;;0.70;;
26536;SDS011;14204;51.262;5.488;2023-07-20T14:11:31;2.00;;;0.80;;
26536;SDS011;14204;51.262;5.488;2023-07-20T14:13:57;2.05;;;0.60;;
26536;SDS011;14204;51.262;5.488;2023-07-20T14:16:23;2.03;;;0.70;;
26536;SDS011;14204;51.262;5.488;2023-07-20T14:18:50;1.33;;;0.80;;
26536;SDS011;14204;51.262;5.488;2023-07-20T14:21:16;1.25;;;1.15;;
26536;SDS011;14204;51.262;5.488;2023-07-20T14:23:46;0.98;;;0.80;;
26536;SDS011;14204;51.262;5.488;2023-07-20T14:26:16;1.25;;;1.15;;
26536;SDS011;14204;51.262;5.488;2023-07-20T14:28:42;1.98;;;0.93;;
26536;SDS011;14204;51.262;5.488;2023-07-20T14:31:07;1.10;;;1.00;;
26536;SDS011;14204;51.262;5.488;2023-07-20T14:33:33;1.85;;;1.25;;
26536;SDS011;14204;51.262;5.488;2023-07-20T14:35:59;2.30;;;1.05;;
26536;SDS011;14204;51.262;5.488;2023-07-20T14:38:26;0.90;;;0.90;;
26536;SDS011;14204;51.262;5.488;2023-07-20T14:40:53;1.38;;;1.27;;
26536;SDS011;14204;51.262;5.488;2023-07-20T14:43:19;1.98;;;1.02;;
26536;SDS011;14204;51.262;5.488;2023-07-20T14:45:45;1.20;;;0.85;;
26536;SDS011;14204;51.262;5.488;2023-07-20T14:48:10;1.08;;;1.05;;
26536;SDS011;14204;51.262;5.488;2023-07-20T14:50:36;2.58;;;1.10;;
26536;SDS011;14204;51.262;5.488;2023-07-20T14:53:02;1.48;;;1.30;;
26536;SDS011;14204;51.262;5.488;2023-07-20T14:55:28;2.63;;;1.30;;
26536;SDS011;14204;51.262;5.488;2023-07-20T14:57:54;2.08;;;1.38;;
26536;SDS011;14204;51.262;5.488;2023-07-20T15:00:20;1.48;;;1.38;;
26536;SDS011;14204;51.262;5.488;2023-07-20T15:02:46;2.22;;;1.65;;
26536;SDS011;14204;51.262;5.488;2023-07-20T15:05:11;4.40;;;1.67;;
26536;SDS011;14204;51.262;5.488;2023-07-20T15:07:47;1.65;;;1.38;;